WXM80 ListenWXM80 Stop

You find our weather info also at:

UK Metoffice

WeatherCloud

Weather Underground

Northeastern Weather Network

AWEKAS

Citizen Weather Observer Program (CWOP)

HAMweather, WeatherForYou, PWS Weather


Weather Underground History page Text

Daily Summary for September 9, 2016 Units:  English    Metric   Both
« Previous Day
Next Day »
Daily Weekly Monthly Yearly Custom
  High: Low: Average:
Temperature: 95.9 °F 73.5 °F 83.1 °F
Dew Point: 77.2 °F 71.4 °F 73.9 °F
Humidity: 95 % 51 % 75 %
Wind Speed: 5.2 mph 0.0 mph 1.1 mph
Wind Gust: 10.0 mph - -
Wind:- - WSW
Pressure: 29.96 in 29.77 in -
Precipitation: 0.00 in    
Historical Graphs
 
 
Tabular Data for September 9, 2016
Time Temperature Dew Point Pressure Wind Wind Speed Wind Gust Humidity Rainfall Rate (Hourly)
00:04 76.1 °F 73.3 °F 29.80 in NNE 2.5 mph 6.0 mph 91 % 0.00 in
00:09 76.1 °F 73.6 °F 29.79 in North 0.1 mph 1.2 mph 92 % 0.00 in
00:14 76.1 °F 73.6 °F 29.80 in Calm     92 % 0.00 in
00:20 76.0 °F 73.5 °F 29.79 in Calm   2.3 mph 92 % 0.00 in
00:25 76.0 °F 73.5 °F 29.79 in Calm     92 % 0.00 in
00:30 75.9 °F 73.4 °F 29.79 in Calm   1.2 mph 92 % 0.00 in
00:35 75.9 °F 73.4 °F 29.79 in Calm     92 % 0.00 in
00:40 75.8 °F 73.3 °F 29.79 in Calm     92 % 0.00 in
00:45 75.8 °F 73.3 °F 29.79 in Calm     92 % 0.00 in
00:50 75.7 °F 73.2 °F 29.79 in Calm     92 % 0.00 in
00:55 75.6 °F 73.1 °F 29.79 in Calm     92 % 0.00 in
01:05 75.4 °F 72.6 °F 29.79 in Calm     91 % 0.00 in
01:11 75.4 °F 72.6 °F 29.78 in Calm     91 % 0.00 in
01:16 75.3 °F 72.8 °F 29.78 in Calm     92 % 0.00 in
01:21 75.2 °F 72.7 °F 29.79 in Calm     92 % 0.00 in
01:26 75.1 °F 72.6 °F 29.78 in Calm     92 % 0.00 in
01:31 75.1 °F 72.6 °F 29.79 in Calm     92 % 0.00 in
01:36 74.9 °F 72.4 °F 29.79 in Calm     92 % 0.00 in
01:41 74.8 °F 72.3 °F 29.79 in Calm     92 % 0.00 in
01:46 74.7 °F 72.2 °F 29.79 in Calm     92 % 0.00 in
01:51 74.7 °F 72.2 °F 29.79 in Calm     92 % 0.00 in
01:56 74.6 °F 72.1 °F 29.79 in Calm     92 % 0.00 in
02:01 74.5 °F 72.0 °F 29.79 in Calm     92 % 0.00 in
02:06 74.4 °F 71.9 °F 29.79 in Calm     92 % 0.00 in
02:11 74.4 °F 72.2 °F 29.79 in Calm     93 % 0.00 in
02:16 74.3 °F 72.1 °F 29.78 in Calm     93 % 0.00 in
02:21 74.2 °F 72.0 °F 29.78 in Calm     93 % 0.00 in
02:27 74.1 °F 71.9 °F 29.78 in Calm     93 % 0.00 in
02:32 74.0 °F 71.8 °F 29.78 in Calm     93 % 0.00 in
02:37 74.0 °F 71.8 °F 29.78 in Calm     93 % 0.00 in
02:42 73.9 °F 71.7 °F 29.78 in Calm     93 % 0.00 in
02:47 73.8 °F 71.6 °F 29.77 in Calm     93 % 0.00 in
02:52 73.8 °F 71.6 °F 29.77 in Calm     93 % 0.00 in
02:57 73.7 °F 71.5 °F 29.77 in Calm     93 % 0.00 in
03:02 73.6 °F 71.4 °F 29.77 in Calm     93 % 0.00 in
03:07 73.5 °F 71.4 °F 29.77 in Calm     93 % 0.00 in
03:12 73.5 °F 71.4 °F 29.77 in Calm     93 % 0.00 in
03:18 73.5 °F 71.7 °F 29.77 in Calm     94 % 0.00 in
03:23 73.5 °F 71.7 °F 29.77 in Calm     94 % 0.00 in
03:28 73.5 °F 71.7 °F 29.77 in Calm     94 % 0.00 in
03:33 73.6 °F 72.1 °F 29.77 in Calm     95 % 0.00 in
03:43 74.0 °F 72.5 °F 29.77 in SW 2.1 mph 5.8 mph 95 % 0.00 in
03:48 74.1 °F 72.6 °F 29.78 in SSW 1.6 mph 2.3 mph 95 % 0.00 in
03:53 74.3 °F 72.8 °F 29.78 in Calm   1.2 mph 95 % 0.00 in
03:58 74.4 °F 72.6 °F 29.78 in SSW 0.1 mph 1.2 mph 94 % 0.00 in
04:03 74.6 °F 72.8 °F 29.78 in SSW 1.2 mph 2.3 mph 94 % 0.00 in
04:09 74.7 °F 72.9 °F 29.78 in SSW 0.4 mph 2.3 mph 94 % 0.00 in
04:14 74.9 °F 73.1 °F 29.78 in WSW 0.7 mph 2.3 mph 94 % 0.00 in
04:19 75.1 °F 72.9 °F 29.78 in Calm     93 % 0.00 in
04:24 75.3 °F 73.1 °F 29.78 in WSW 0.1 mph 2.3 mph 93 % 0.00 in
04:29 75.4 °F 72.9 °F 29.79 in Calm     92 % 0.00 in
04:34 75.5 °F 73.0 °F 29.79 in WSW 0.4 mph 2.3 mph 92 % 0.00 in
04:39 75.6 °F 73.1 °F 29.79 in WSW 0.1 mph 1.2 mph 92 % 0.00 in
04:49 75.9 °F 73.1 °F 29.79 in SW 1.9 mph 6.9 mph 91 % 0.00 in
04:54 76.1 °F 73.3 °F 29.79 in Calm   3.5 mph 91 % 0.00 in
04:59 76.2 °F 73.1 °F 29.79 in WSW 0.2 mph 1.2 mph 90 % 0.00 in
05:05 76.3 °F 73.1 °F 29.79 in SW 0.4 mph 3.5 mph 90 % 0.00 in
05:10 76.4 °F 73.2 °F 29.79 in Calm   1.2 mph 90 % 0.00 in
05:15 76.4 °F 72.9 °F 29.79 in WSW 0.4 mph 1.2 mph 89 % 0.00 in
05:20 76.5 °F 73.0 °F 29.80 in WSW 0.3 mph 2.3 mph 89 % 0.00 in
05:25 76.7 °F 72.9 °F 29.80 in Calm     88 % 0.00 in
05:30 76.7 °F 72.9 °F 29.80 in Calm   1.0 mph 88 % 0.00 in
05:35 76.9 °F 72.7 °F 29.80 in Calm   1.2 mph 87 % 0.00 in
05:40 77.0 °F 72.8 °F 29.80 in Calm   1.2 mph 87 % 0.00 in
05:45 77.1 °F 72.9 °F 29.81 in SW 0.5 mph 2.0 mph 87 % 0.00 in
05:50 77.1 °F 72.9 °F 29.81 in SW 0.5 mph 2.0 mph 87 % 0.00 in
05:56 77.2 °F 73.0 °F 29.81 in Calm   1.0 mph 87 % 0.00 in
06:01 77.2 °F 73.0 °F 29.81 in SW 0.1 mph 1.2 mph 87 % 0.00 in
06:06 77.2 °F 73.0 °F 29.82 in SW 0.3 mph 1.2 mph 87 % 0.00 in
06:11 77.3 °F 72.8 °F 29.81 in Calm     86 % 0.00 in
06:16 77.3 °F 72.8 °F 29.82 in SW 0.2 mph 2.3 mph 86 % 0.00 in
06:21 77.3 °F 72.8 °F 29.82 in SW 0.3 mph 2.3 mph 86 % 0.00 in
06:26 77.3 °F 72.8 °F 29.82 in SW 0.2 mph 1.2 mph 86 % 0.00 in
06:31 77.2 °F 72.7 °F 29.82 in SW 0.1 mph 1.2 mph 86 % 0.00 in
06:36 77.2 °F 72.7 °F 29.82 in SW 0.6 mph 3.5 mph 86 % 0.00 in
06:41 77.2 °F 72.7 °F 29.83 in South 0.7 mph 2.3 mph 86 % 0.00 in
06:47 77.2 °F 72.7 °F 29.83 in SSW 1.5 mph 3.5 mph 86 % 0.00 in
06:52 77.2 °F 72.7 °F 29.83 in SSW 0.4 mph 1.2 mph 86 % 0.00 in
06:57 77.2 °F 72.7 °F 29.83 in SW 1.3 mph 3.5 mph 86 % 0.00 in
07:02 77.3 °F 72.8 °F 29.83 in Calm   1.2 mph 86 % 0.00 in
07:07 77.3 °F 72.8 °F 29.83 in SSW 0.1 mph 1.2 mph 86 % 0.00 in
07:12 77.3 °F 72.8 °F 29.84 in SW 0.4 mph 1.2 mph 86 % 0.00 in
07:17 77.4 °F 72.9 °F 29.83 in SW 0.3 mph 1.2 mph 86 % 0.00 in
07:22 77.5 °F 73.0 °F 29.84 in SW 0.2 mph 2.0 mph 86 % 0.00 in
07:27 77.6 °F 73.1 °F 29.84 in SW 0.8 mph 1.0 mph 86 % 0.00 in
07:32 77.7 °F 72.8 °F 29.83 in SW 0.2 mph 2.3 mph 85 % 0.00 in
07:38 77.8 °F 72.9 °F 29.84 in SW 0.1 mph   85 % 0.00 in
07:43 78.0 °F 73.1 °F 29.84 in Calm   1.2 mph 85 % 0.00 in
07:48 78.1 °F 73.2 °F 29.84 in WNW 0.3 mph 1.2 mph 85 % 0.00 in
07:53 78.3 °F 73.4 °F 29.84 in WSW 0.6 mph 3.5 mph 85 % 0.00 in
07:58 78.4 °F 73.5 °F 29.85 in WSW 0.4 mph 2.3 mph 85 % 0.00 in
08:03 78.6 °F 73.4 °F 29.84 in SW 2.2 mph 4.6 mph 84 % 0.00 in
08:08 78.8 °F 73.6 °F 29.84 in WSW 0.2 mph 1.0 mph 84 % 0.00 in
08:13 78.9 °F 73.3 °F 29.84 in WSW 2.7 mph 3.5 mph 83 % 0.00 in
08:18 79.1 °F 73.5 °F 29.84 in WSW 0.6 mph 2.3 mph 83 % 0.00 in
08:23 79.3 °F 73.7 °F 29.84 in West 0.9 mph 3.5 mph 83 % 0.00 in
08:28 79.5 °F 73.9 °F 29.84 in SSW 3.5 mph 4.6 mph 83 % 0.00 in
08:34 79.7 °F 73.7 °F 29.84 in SW 1.7 mph 4.6 mph 82 % 0.00 in
08:39 79.9 °F 73.9 °F 29.84 in SSW 2.2 mph 3.5 mph 82 % 0.00 in
08:44 80.1 °F 74.1 °F 29.84 in SW 2.5 mph 4.6 mph 82 % 0.00 in
08:49 80.3 °F 73.9 °F 29.84 in West 1.5 mph 3.5 mph 81 % 0.00 in
08:54 80.4 °F 73.7 °F 29.84 in West 2.3 mph 4.0 mph 80 % 0.00 in
08:59 80.5 °F 73.8 °F 29.84 in SW 1.2 mph 4.6 mph 80 % 0.00 in
09:04 80.6 °F 73.9 °F 29.84 in SW 1.4 mph 2.3 mph 80 % 0.00 in
09:09 80.7 °F 74.0 °F 29.85 in WSW 2.7 mph 4.6 mph 80 % 0.00 in
09:14 80.9 °F 74.1 °F 29.84 in West 1.9 mph 3.5 mph 80 % 0.00 in
09:19 81.0 °F 74.2 °F 29.84 in SW 2.3 mph 4.0 mph 80 % 0.00 in
09:25 81.1 °F 74.0 °F 29.84 in West 3.6 mph 3.6 mph 79 % 0.00 in
09:30 81.3 °F 74.5 °F 29.84 in SW 3.6 mph 6.9 mph 80 % 0.00 in
09:35 81.5 °F 74.4 °F 29.85 in NW 4.0 mph 5.8 mph 79 % 0.00 in
09:40 81.6 °F 74.1 °F 29.84 in West 2.0 mph 5.8 mph 78 % 0.00 in
09:45 82.0 °F 74.5 °F 29.85 in WSW 2.0 mph 3.5 mph 78 % 0.00 in
09:50 82.4 °F 74.5 °F 29.85 in WNW 4.0 mph 6.9 mph 77 % 0.00 in
09:55 82.8 °F 74.5 °F 29.85 in SW 2.3 mph 5.8 mph 76 % 0.00 in
10:00 83.2 °F 74.8 °F 29.85 in SW 2.1 mph 5.0 mph 76 % 0.00 in
10:05 83.6 °F 74.4 °F 29.85 in NW 2.5 mph 6.9 mph 74 % 0.00 in
10:10 83.9 °F 75.1 °F 29.86 in WNW 3.4 mph 4.6 mph 75 % 0.00 in
10:16 84.2 °F 75.0 °F 29.86 in WSW 2.4 mph 3.5 mph 74 % 0.00 in
10:21 84.3 °F 74.7 °F 29.86 in West 2.0 mph 6.0 mph 73 % 0.00 in
10:26 84.5 °F 74.9 °F 29.86 in West 3.0 mph 6.0 mph 73 % 0.00 in
10:31 84.6 °F 75.0 °F 29.86 in WNW 2.0 mph 6.0 mph 73 % 0.00 in
10:36 84.7 °F 75.1 °F 29.86 in West 5.0 mph 8.0 mph 73 % 0.00 in
10:41 84.9 °F 74.9 °F 29.86 in West 2.0 mph 7.0 mph 72 % 0.00 in
10:46 85.2 °F 75.1 °F 29.87 in WSW 3.0 mph 7.0 mph 72 % 0.00 in
10:51 85.4 °F 75.3 °F 29.86 in WSW 3.0 mph 9.0 mph 72 % 0.00 in
10:56 85.7 °F 75.6 °F 29.86 in West 2.0 mph 7.0 mph 72 % 0.00 in
11:01 86.1 °F 75.6 °F 29.86 in NW 4.0 mph 6.9 mph 71 % 0.00 in
11:06 86.5 °F 76.4 °F 29.86 in WNW 2.0 mph 7.0 mph 72 % 0.00 in
11:11 86.9 °F 75.5 °F 29.86 in WSW 3.0 mph 5.0 mph 69 % 0.00 in
11:16 87.5 °F 75.6 °F 29.86 in SW 5.0 mph 10.0 mph 68 % 0.00 in
11:21 88.2 °F 76.8 °F 29.86 in WSW 1.0 mph 6.0 mph 69 % 0.00 in
11:26 89.0 °F 76.2 °F 29.86 in WNW 5.0 mph 9.0 mph 66 % 0.00 in
11:31 89.6 °F 76.3 °F 29.86 in West 2.0 mph 7.0 mph 65 % 0.00 in
11:35 90.5 °F 77.1 °F 29.86 in SW 3.3 mph 6.0 mph 65 % 0.00 in
11:41 90.9 °F 77.0 °F 29.86 in WSW 3.0 mph 8.0 mph 64 % 0.00 in
11:46 91.3 °F 76.0 °F 29.86 in West 3.0 mph 7.0 mph 61 % 0.00 in
11:51 91.5 °F 76.1 °F 29.86 in West 3.0 mph 6.0 mph 61 % 0.00 in
11:56 91.6 °F 76.2 °F 29.86 in West 2.0 mph 5.0 mph 61 % 0.00 in
12:01 91.9 °F 76.5 °F 29.86 in NNW 3.0 mph 3.5 mph 61 % 0.00 in
12:06 92.2 °F 76.8 °F 29.86 in WNW 1.8 mph 4.6 mph 61 % 0.00 in
12:11 92.6 °F 76.7 °F 29.86 in WSW 4.1 mph 6.9 mph 60 % 0.00 in
12:16 93.0 °F 77.1 °F 29.86 in NW 3.0 mph 4.6 mph 60 % 0.00 in
12:21 93.4 °F 76.4 °F 29.86 in NNE 2.8 mph 6.0 mph 58 % 0.00 in
12:26 93.8 °F 76.3 °F 29.86 in North 3.7 mph 5.8 mph 57 % 0.00 in
12:31 94.1 °F 77.1 °F 29.87 in NNW 0.9 mph 3.5 mph 58 % 0.00 in
12:36 94.3 °F 77.2 °F 29.86 in NE 3.1 mph 5.0 mph 58 % 0.00 in
12:41 94.4 °F 76.3 °F 29.87 in NNW 2.9 mph 5.8 mph 56 % 0.00 in
12:46 94.7 °F 76.6 °F 29.87 in NNW 1.2 mph 3.5 mph 56 % 0.00 in
12:52 94.9 °F 76.2 °F 29.87 in NNW 1.7 mph 5.8 mph 55 % 0.00 in
12:57 95.0 °F 76.3 °F 29.87 in NNE 2.4 mph 4.6 mph 55 % 0.00 in
13:02 95.1 °F 76.4 °F 29.87 in North 3.7 mph 4.6 mph 55 % 0.00 in
13:07 95.0 °F 76.3 °F 29.87 in North 3.6 mph 5.0 mph 55 % 0.00 in
13:12 94.8 °F 77.2 °F 29.86 in WNW 1.2 mph 3.5 mph 57 % 0.00 in
13:17 95.3 °F 77.1 °F 29.86 in NNW 0.6 mph 3.5 mph 56 % 0.00 in
13:22 95.6 °F 75.7 °F 29.87 in WNW 3.1 mph 5.0 mph 53 % 0.00 in
13:27 95.9 °F 76.0 °F 29.86 in WNW 2.1 mph 4.6 mph 53 % 0.00 in
13:32 95.9 °F 74.9 °F 29.86 in South 1.3 mph 2.3 mph 51 % 0.00 in
13:37 95.6 °F 74.6 °F 29.86 in SW 3.5 mph 4.0 mph 51 % 0.00 in
13:43 95.1 °F 74.7 °F 29.86 in WNW 1.9 mph 3.5 mph 52 % 0.00 in
13:48 94.5 °F 74.7 °F 29.86 in NW 2.8 mph 4.0 mph 53 % 0.00 in
13:53 93.7 °F 73.4 °F 29.86 in WSW 2.4 mph 4.6 mph 52 % 0.00 in
13:58 92.8 °F 73.7 °F 29.86 in WSW 2.0 mph 4.0 mph 54 % 0.00 in
14:03 92.2 °F 73.2 °F 29.86 in SW 1.0 mph 2.3 mph 54 % 0.00 in
14:08 91.8 °F 73.3 °F 29.86 in NW 1.1 mph 3.5 mph 55 % 0.00 in
14:13 91.3 °F 73.4 °F 29.86 in NW 1.2 mph 3.5 mph 56 % 0.00 in
14:18 90.8 °F 74.0 °F 29.86 in West 0.1 mph 1.0 mph 58 % 0.00 in
14:23 90.5 °F 74.2 °F 29.86 in Calm   1.2 mph 59 % 0.00 in
14:28 90.3 °F 74.5 °F 29.86 in WSW 0.7 mph 3.5 mph 60 % 0.00 in
14:33 90.2 °F 73.9 °F 29.86 in SW 0.6 mph 2.3 mph 59 % 0.00 in
14:39 90.1 °F 73.8 °F 29.86 in West 1.6 mph 3.5 mph 59 % 0.00 in
14:44 90.0 °F 74.2 °F 29.86 in WSW 2.9 mph 4.6 mph 60 % 0.00 in
14:49 89.8 °F 74.1 °F 29.86 in West 0.3 mph 2.3 mph 60 % 0.00 in
14:54 89.7 °F 74.0 °F 29.86 in West 1.0 mph 3.5 mph 60 % 0.00 in
14:59 89.5 °F 73.8 °F 29.86 in WNW 2.3 mph 4.6 mph 60 % 0.00 in
15:04 89.3 °F 74.1 °F 29.86 in WSW 2.5 mph 3.5 mph 61 % 0.00 in
15:09 89.2 °F 74.0 °F 29.86 in West 0.7 mph 3.5 mph 61 % 0.00 in
15:14 89.2 °F 74.5 °F 29.86 in West 1.0 mph 4.6 mph 62 % 0.00 in
15:19 89.1 °F 73.9 °F 29.86 in West 3.9 mph 4.6 mph 61 % 0.00 in
15:24 89.1 °F 74.4 °F 29.86 in SW 2.4 mph 4.6 mph 62 % 0.00 in
15:30 89.2 °F 74.5 °F 29.85 in WSW 3.1 mph 4.0 mph 62 % 0.00 in
15:35 89.3 °F 75.5 °F 29.85 in WSW 2.2 mph 4.0 mph 64 % 0.00 in
15:45 89.9 °F 75.1 °F 29.85 in West 1.3 mph 3.5 mph 62 % 0.00 in
15:50 90.4 °F 74.6 °F 29.85 in WSW 1.6 mph 3.5 mph 60 % 0.00 in
15:55 90.7 °F 73.9 °F 29.85 in WSW 2.1 mph 4.6 mph 58 % 0.00 in
16:00 90.9 °F 74.1 °F 29.85 in WNW 2.8 mph 5.8 mph 58 % 0.00 in
16:05 91.0 °F 74.7 °F 29.85 in WNW 2.3 mph 3.5 mph 59 % 0.00 in
16:10 91.1 °F 74.8 °F 29.85 in WSW 2.2 mph 5.8 mph 59 % 0.00 in
16:15 91.3 °F 76.0 °F 29.85 in WNW 2.4 mph 4.6 mph 61 % 0.00 in
16:21 91.2 °F 74.9 °F 29.85 in WNW 2.0 mph 6.0 mph 59 % 0.00 in
16:26 91.4 °F 74.0 °F 29.85 in West 3.0 mph 7.0 mph 57 % 0.00 in
16:31 91.6 °F 74.7 °F 29.85 in West 1.0 mph 6.0 mph 58 % 0.00 in
16:36 91.6 °F 75.2 °F 29.85 in WSW 1.9 mph 3.5 mph 59 % 0.00 in
16:41 91.7 °F 74.3 °F 29.86 in West 2.0 mph 4.0 mph 57 % 0.00 in
16:45 91.7 °F 74.3 °F 29.86 in WSW 2.0 mph 5.0 mph 57 % 0.00 in
16:51 91.7 °F 73.7 °F 29.86 in WSW 5.0 mph 7.0 mph 56 % 0.00 in
16:55 91.5 °F 74.1 °F 29.86 in Calm   1.0 mph 57 % 0.00 in
17:01 91.3 °F 74.4 °F 29.86 in West 0.2 mph 1.2 mph 58 % 0.00 in
17:06 91.2 °F 74.4 °F 29.86 in West 0.9 mph 2.3 mph 58 % 0.00 in
17:11 91.1 °F 73.7 °F 29.86 in West 1.1 mph 3.5 mph 57 % 0.00 in
17:16 91.1 °F 73.7 °F 29.86 in WSW 1.4 mph 3.5 mph 57 % 0.00 in
17:21 91.0 °F 73.7 °F 29.86 in Calm   2.3 mph 57 % 0.00 in
17:26 90.8 °F 73.5 °F 29.86 in WNW 0.1 mph 1.2 mph 57 % 0.00 in
17:31 90.5 °F 73.2 °F 29.86 in WNW 0.9 mph 3.5 mph 57 % 0.00 in
17:36 90.3 °F 73.5 °F 29.86 in Calm   1.2 mph 58 % 0.00 in
17:41 90.1 °F 73.8 °F 29.86 in WNW 0.1 mph 1.2 mph 59 % 0.00 in
17:46 89.9 °F 73.7 °F 29.86 in Calm   1.2 mph 59 % 0.00 in
17:52 89.6 °F 73.9 °F 29.86 in SSW 2.2 mph 3.5 mph 60 % 0.00 in
17:57 89.4 °F 73.7 °F 29.87 in SSW 1.0 mph 3.5 mph 60 % 0.00 in
18:02 89.1 °F 73.4 °F 29.86 in Calm     60 % 0.00 in
18:07 89.0 °F 73.3 °F 29.87 in SSW 0.8 mph 1.2 mph 60 % 0.00 in
18:12 88.7 °F 73.5 °F 29.87 in Calm     61 % 0.00 in
18:17 88.5 °F 73.3 °F 29.87 in SSW 0.2 mph 1.2 mph 61 % 0.00 in
18:22 88.3 °F 73.6 °F 29.87 in Calm     62 % 0.00 in
18:27 88.1 °F 73.4 °F 29.87 in Calm     62 % 0.00 in
18:32 87.9 °F 73.7 °F 29.87 in Calm     63 % 0.00 in
18:37 87.7 °F 73.5 °F 29.87 in Calm   1.2 mph 63 % 0.00 in
18:40 87.7 °F 73.5 °F 29.87 in Calm     63 % 0.00 in
18:45 87.4 °F 73.7 °F 29.87 in Calm     64 % 0.00 in
18:50 87.3 °F 73.6 °F 29.88 in Calm   1.2 mph 64 % 0.00 in
18:55 87.1 °F 73.4 °F 29.88 in Calm     64 % 0.00 in
19:00 86.9 °F 73.7 °F 29.88 in Calm     65 % 0.00 in
19:05 86.8 °F 73.6 °F 29.88 in Calm   1.2 mph 65 % 0.00 in
19:10 86.6 °F 73.9 °F 29.88 in SSW 0.3 mph 2.3 mph 66 % 0.00 in
19:15 86.3 °F 73.6 °F 29.88 in Calm   1.2 mph 66 % 0.00 in
19:21 86.2 °F 73.5 °F 29.89 in Calm     66 % 0.00 in
19:25 86.0 °F 73.8 °F 29.89 in Calm     67 % 0.00 in
19:30 85.9 °F 73.7 °F 29.89 in Calm   1.0 mph 67 % 0.00 in
19:35 85.7 °F 73.9 °F 29.89 in Calm   1.0 mph 68 % 0.00 in
19:41 85.5 °F 73.7 °F 29.89 in Calm   1.2 mph 68 % 0.00 in
19:46 85.3 °F 74.0 °F 29.90 in Calm     69 % 0.00 in
19:51 85.1 °F 73.8 °F 29.90 in Calm     69 % 0.00 in
19:56 85.0 °F 74.1 °F 29.90 in Calm     70 % 0.00 in
20:01 84.7 °F 73.8 °F 29.91 in SSW 0.1 mph 1.2 mph 70 % 0.00 in
20:06 84.6 °F 73.7 °F 29.91 in Calm   1.2 mph 70 % 0.00 in
20:11 84.5 °F 74.1 °F 29.91 in Calm     71 % 0.00 in
20:16 84.3 °F 73.9 °F 29.91 in Calm     71 % 0.00 in
20:21 84.2 °F 73.8 °F 29.91 in Calm     71 % 0.00 in
20:26 84.1 °F 74.1 °F 29.91 in Calm     72 % 0.00 in
20:31 84.0 °F 74.0 °F 29.91 in Calm     72 % 0.00 in
20:36 83.9 °F 74.3 °F 29.92 in Calm     73 % 0.00 in
20:41 83.8 °F 74.2 °F 29.91 in Calm     73 % 0.00 in
20:47 83.7 °F 74.1 °F 29.91 in Calm     73 % 0.00 in
20:52 83.6 °F 74.4 °F 29.91 in Calm     74 % 0.00 in
20:57 83.5 °F 74.3 °F 29.92 in Calm     74 % 0.00 in
21:02 83.4 °F 74.2 °F 29.92 in Calm     74 % 0.00 in
21:07 83.4 °F 74.6 °F 29.92 in Calm     75 % 0.00 in
21:12 83.2 °F 74.4 °F 29.93 in Calm     75 % 0.00 in
21:17 83.1 °F 74.4 °F 29.92 in Calm     75 % 0.00 in
21:22 83.0 °F 74.6 °F 29.92 in Calm     76 % 0.00 in
21:27 82.9 °F 74.6 °F 29.92 in Calm     76 % 0.00 in
21:32 82.8 °F 74.5 °F 29.92 in Calm     76 % 0.00 in
21:38 82.7 °F 74.4 °F 29.92 in Calm     76 % 0.00 in
21:43 82.5 °F 74.2 °F 29.92 in Calm     76 % 0.00 in
21:48 82.5 °F 74.6 °F 29.93 in Calm     77 % 0.00 in
21:53 82.4 °F 74.5 °F 29.93 in Calm     77 % 0.00 in
21:58 82.3 °F 74.4 °F 29.93 in Calm     77 % 0.00 in
22:03 82.2 °F 74.3 °F 29.93 in Calm     77 % 0.00 in
22:08 82.1 °F 74.2 °F 29.93 in SW 3.3 mph 4.0 mph 77 % 0.00 in
22:13 82.1 °F 74.6 °F 29.94 in WSW 0.3 mph 3.5 mph 78 % 0.00 in
22:18 82.1 °F 75.7 °F 29.94 in WNW 2.6 mph 4.0 mph 81 % 0.00 in
22:23 81.9 °F 75.1 °F 29.94 in NW 0.2 mph 4.6 mph 80 % 0.00 in
22:29 81.8 °F 75.4 °F 29.94 in NW 0.6 mph 1.2 mph 81 % 0.00 in
22:34 81.5 °F 74.7 °F 29.94 in NNW 0.2 mph 1.2 mph 80 % 0.00 in
22:39 81.2 °F 74.8 °F 29.94 in NW 0.4 mph 2.3 mph 81 % 0.00 in
22:49 80.7 °F 75.1 °F 29.96 in SW 3.6 mph 6.9 mph 83 % 0.00 in
22:54 80.3 °F 75.0 °F 29.96 in West 2.7 mph 8.1 mph 84 % 0.00 in
22:59 79.8 °F 74.2 °F 29.96 in North 1.6 mph 3.5 mph 83 % 0.00 in
23:04 79.4 °F 74.1 °F 29.95 in West 1.5 mph 5.8 mph 84 % 0.00 in
23:09 79.2 °F 74.3 °F 29.95 in NNW 2.1 mph 3.5 mph 85 % 0.00 in
23:14 78.9 °F 74.0 °F 29.95 in WNW 3.3 mph 6.9 mph 85 % 0.00 in
23:20 78.6 °F 74.1 °F 29.96 in WNW 4.5 mph 6.9 mph 86 % 0.00 in
23:25 78.4 °F 74.2 °F 29.96 in West 5.2 mph 8.1 mph 87 % 0.00 in
23:30 78.2 °F 74.0 °F 29.96 in WNW 2.1 mph 3.5 mph 87 % 0.00 in
23:35 78.1 °F 73.9 °F 29.96 in WNW 0.3 mph 3.5 mph 87 % 0.00 in
23:40 78.0 °F 73.8 °F 29.95 in WNW 0.2 mph 1.0 mph 87 % 0.00 in
23:45 77.8 °F 73.6 °F 29.95 in NNE 4.0 mph 8.1 mph 87 % 0.00 in
23:50 77.5 °F 73.3 °F 29.95 in NNE 2.2 mph 3.5 mph 87 % 0.00 in
23:55 77.4 °F 73.2 °F 29.95 in NNW 4.4 mph 5.8 mph 87 % 0.00 in
Crab Meadow Weather
Compliments of Weather Underground - 2.75 mb

Script developed by  Jim McMurry - jmcmurry@mwt.net Adapted for the template by  Wim van der Kuil - Leuven-Template.eu

Snow: Snowflakes generally fall from the sky at speeds between one and five miles per hour.